Thamesteel1 — V7OI7 — position and weather

sailwx.info

Track history (hours):
 
Tides and Currents Weather Stations Pressure Air Temp Water Temp Dewpoint Dewpoint Depression Visibility Wind Speed Wind Dir Waves Ship Positions

Thamesteel1

Last reported at 2016-Jul-23 23:27 UTC. Time now 2016-Jul-24 02:56 UTC.
Position N 36°44' E 000°53'.

Length 89 m; draft 4.8 m.

Type: Cargo ship. MMSI: 538003096.

Date/timePositionNaut miles runAvg speedWind from/ knotsBaromVisibWave heightAir tempDewpointWater temp
2016-Jul-23 23:27N 36°44' E 000°53'1011.3
2016-Jul-23 22:33N 36°43' E 000°41'1111.4
2016-Jul-23 21:33N 36°41' E 000°27'1111.3
2016-Jul-23 20:33N 36°40' E 000°13'14411.7
2016-Jul-23 08:19N 36°19' W 002°44'11912.2
2016-Jul-22 22:31N 36°01' W 005°10'1515.8
2016-Jul-22 21:33N 35°57' W 005°28'1714.1
2016-Jul-22 20:21N 35°55' W 005°49'1514.1
2016-Jul-22 19:17N 35°54' W 006°07'1113.8
2016-Jul-22 18:31N 35°54' W 006°21'1212.2
2016-Jul-22 17:31N 35°54' W 006°36'1111.4
2016-Jul-22 16:33N 35°54' W 006°49'1512.1
2016-Jul-22 15:19N 35°54' W 007°08'911.9
2016-Jul-22 14:33N 35°54' W 007°19'33011.6
2016-Jul-21 10:04N 35°40' W 014°05'711.2
2016-Jul-21 09:27N 35°40' W 014°14'8211.6
2016-Jul-21 02:22N 35°33' W 015°54'1211.5
2016-Jul-21 01:22N 35°32' W 016°08'911.4
2016-Jul-21 00:33N 35°31' W 016°20'1111.3
2016-Jul-20 23:34N 35°30' W 016°33'1211.5
2016-Jul-20 22:32N 35°28' W 016°48'1111.2
2016-Jul-20 21:31N 35°27' W 017°02'1111.5
2016-Jul-20 20:33N 35°26' W 017°15'1211.3
2016-Jul-20 19:30N 35°25' W 017°30'1111.4
2016-Jul-20 18:33N 35°24' W 017°43'2811.5
2016-Jul-20 16:06N 35°20' W 018°17'  
Track history (hours):
 
Tides and Currents Weather Stations Pressure Air Temp Water Temp Dewpoint Dewpoint Depression Visibility Wind Speed Wind Dir Waves Ship Positions

Thamesteel1

Last reported at 2016-Jul-23 23:27 UTC. Time now 2016-Jul-24 02:56 UTC.
Position N 36°44' E 000°53'.

Length 89 m; draft 4.8 m.

Type: Cargo ship. MMSI: 538003096.

Date/timePositionNaut miles runAvg speedWind from/ knotsBaromVisibWave heightAir tempDewpointWater temp
2016-Jul-23 23:27N 36°44' E 000°53'1011.3
2016-Jul-23 22:33N 36°43' E 000°41'1111.4
2016-Jul-23 21:33N 36°41' E 000°27'1111.3
2016-Jul-23 20:33N 36°40' E 000°13'14411.7
2016-Jul-23 08:19N 36°19' W 002°44'11912.2
2016-Jul-22 22:31N 36°01' W 005°10'1515.8
2016-Jul-22 21:33N 35°57' W 005°28'1714.1
2016-Jul-22 20:21N 35°55' W 005°49'1514.1
2016-Jul-22 19:17N 35°54' W 006°07'1113.8
2016-Jul-22 18:31N 35°54' W 006°21'1212.2
2016-Jul-22 17:31N 35°54' W 006°36'1111.4
2016-Jul-22 16:33N 35°54' W 006°49'1512.1
2016-Jul-22 15:19N 35°54' W 007°08'911.9
2016-Jul-22 14:33N 35°54' W 007°19'33011.6
2016-Jul-21 10:04N 35°40' W 014°05'711.2
2016-Jul-21 09:27N 35°40' W 014°14'8211.6
2016-Jul-21 02:22N 35°33' W 015°54'1211.5
2016-Jul-21 01:22N 35°32' W 016°08'911.4
2016-Jul-21 00:33N 35°31' W 016°20'1111.3
2016-Jul-20 23:34N 35°30' W 016°33'1211.5
2016-Jul-20 22:32N 35°28' W 016°48'1111.2
2016-Jul-20 21:31N 35°27' W 017°02'1111.5
2016-Jul-20 20:33N 35°26' W 017°15'1211.3
2016-Jul-20 19:30N 35°25' W 017°30'1111.4
2016-Jul-20 18:33N 35°24' W 017°43'2811.5
2016-Jul-20 16:06N 35°20' W 018°17'  

Dump ship's entire track history